sensor_id;sensor_type;location;lat;lon;timestamp;temperature;humidity
7232;DHT22;3657;49.630;11.018;2023-08-31T00:00:13;16.80;99.90
7232;DHT22;3657;49.630;11.018;2023-08-31T00:02:41;16.80;99.90
7232;DHT22;3657;49.630;11.018;2023-08-31T00:05:08;16.80;99.90
7232;DHT22;3657;49.630;11.018;2023-08-31T00:07:35;16.80;99.90
7232;DHT22;3657;49.630;11.018;2023-08-31T00:10:04;16.80;99.90
7232;DHT22;3657;49.630;11.018;2023-08-31T00:12:34;16.70;99.90
7232;DHT22;3657;49.630;11.018;2023-08-31T00:15:02;16.60;99.90
7232;DHT22;3657;49.630;11.018;2023-08-31T00:17:30;16.60;99.90
7232;DHT22;3657;49.630;11.018;2023-08-31T00:19:56;16.60;99.90
7232;DHT22;3657;49.630;11.018;2023-08-31T00:22:23;16.60;99.90
7232;DHT22;3657;49.630;11.018;2023-08-31T00:24:50;16.60;99.90
7232;DHT22;3657;49.630;11.018;2023-08-31T00:27:19;16.60;99.90
7232;DHT22;3657;49.630;11.018;2023-08-31T00:29:47;16.60;99.90
7232;DHT22;3657;49.630;11.018;2023-08-31T00:32:16;16.50;99.90
7232;DHT22;3657;49.630;11.018;2023-08-31T00:34:42;16.50;99.90
7232;DHT22;3657;49.630;11.018;2023-08-31T00:37:09;16.50;99.90
7232;DHT22;3657;49.630;11.018;2023-08-31T00:39:36;16.50;99.90
7232;DHT22;3657;49.630;11.018;2023-08-31T00:42:03;16.50;99.90
7232;DHT22;3657;49.630;11.018;2023-08-31T00:44:31;16.50;99.90
7232;DHT22;3657;49.630;11.018;2023-08-31T00:46:57;16.50;99.90
7232;DHT22;3657;49.630;11.018;2023-08-31T00:49:24;16.50;99.90
7232;DHT22;3657;49.630;11.018;2023-08-31T00:51:51;16.50;99.90
7232;DHT22;3657;49.630;11.018;2023-08-31T00:54:18;16.50;99.90
7232;DHT22;3657;49.630;11.018;2023-08-31T00:56:46;16.50;99.90
7232;DHT22;3657;49.630;11.018;2023-08-31T00:59:13;16.40;99.90
7232;DHT22;3657;49.630;11.018;2023-08-31T01:01:47;16.40;99.90
7232;DHT22;3657;49.630;11.018;2023-08-31T01:04:19;16.40;99.90
7232;DHT22;3657;49.630;11.018;2023-08-31T01:06:54;16.40;99.90
7232;DHT22;3657;49.630;11.018;2023-08-31T01:09:34;16.40;99.90
7232;DHT22;3657;49.630;11.018;2023-08-31T01:12:04;16.40;99.90
7232;DHT22;3657;49.630;11.018;2023-08-31T01:14:37;16.30;99.90
7232;DHT22;3657;49.630;11.018;2023-08-31T01:17:08;16.30;99.90
7232;DHT22;3657;49.630;11.018;2023-08-31T01:19:44;16.30;99.90
7232;DHT22;3657;49.630;11.018;2023-08-31T01:22:16;16.30;99.90
7232;DHT22;3657;49.630;11.018;2023-08-31T01:24:45;16.30;99.90
7232;DHT22;3657;49.630;11.018;2023-08-31T01:27:13;16.20;99.90
7232;DHT22;3657;49.630;11.018;2023-08-31T01:29:39;16.30;99.90
7232;DHT22;3657;49.630;11.018;2023-08-31T01:32:06;16.20;99.90
7232;DHT22;3657;49.630;11.018;2023-08-31T01:34:33;16.20;99.90
7232;DHT22;3657;49.630;11.018;2023-08-31T01:37:04;16.20;99.90
7232;DHT22;3657;49.630;11.018;2023-08-31T01:39:37;16.20;99.90
7232;DHT22;3657;49.630;11.018;2023-08-31T01:42:09;16.20;99.90
7232;DHT22;3657;49.630;11.018;2023-08-31T01:44:39;16.10;99.90
7232;DHT22;3657;49.630;11.018;2023-08-31T01:47:07;16.20;99.90
7232;DHT22;3657;49.630;11.018;2023-08-31T01:49:37;16.20;99.90
7232;DHT22;3657;49.630;11.018;2023-08-31T01:52:04;16.10;99.90
7232;DHT22;3657;49.630;11.018;2023-08-31T01:54:32;16.10;99.90
7232;DHT22;3657;49.630;11.018;2023-08-31T01:56:59;16.10;99.90
7232;DHT22;3657;49.630;11.018;2023-08-31T01:59:27;16.10;99.90
7232;DHT22;3657;49.630;11.018;2023-08-31T02:01:54;16.10;99.90
7232;DHT22;3657;49.630;11.018;2023-08-31T02:04:20;16.00;99.90
7232;DHT22;3657;49.630;11.018;2023-08-31T02:06:47;16.10;99.90
7232;DHT22;3657;49.630;11.018;2023-08-31T02:09:14;16.00;99.90
7232;DHT22;3657;49.630;11.018;2023-08-31T02:11:41;16.10;99.90
7232;DHT22;3657;49.630;11.018;2023-08-31T02:14:07;16.00;99.90
7232;DHT22;3657;49.630;11.018;2023-08-31T02:16:35;16.00;99.90
7232;DHT22;3657;49.630;11.018;2023-08-31T02:19:02;16.00;99.90
7232;DHT22;3657;49.630;11.018;2023-08-31T02:21:29;15.90;99.90
7232;DHT22;3657;49.630;11.018;2023-08-31T02:23:56;15.90;99.90
7232;DHT22;3657;49.630;11.018;2023-08-31T02:26:22;15.80;99.90
7232;DHT22;3657;49.630;11.018;2023-08-31T02:28:49;15.70;99.90
7232;DHT22;3657;49.630;11.018;2023-08-31T02:31:17;15.70;99.90
7232;DHT22;3657;49.630;11.018;2023-08-31T02:33:45;15.70;99.90
7232;DHT22;3657;49.630;11.018;2023-08-31T02:36:12;15.70;99.90
7232;DHT22;3657;49.630;11.018;2023-08-31T02:38:39;15.70;99.90
7232;DHT22;3657;49.630;11.018;2023-08-31T02:41:05;15.70;99.90
7232;DHT22;3657;49.630;11.018;2023-08-31T02:43:32;15.70;99.90
7232;DHT22;3657;49.630;11.018;2023-08-31T02:45:59;15.70;99.90
7232;DHT22;3657;49.630;11.018;2023-08-31T02:48:26;15.70;99.90
7232;DHT22;3657;49.630;11.018;2023-08-31T02:50:56;15.70;99.90
7232;DHT22;3657;49.630;11.018;2023-08-31T02:53:23;15.70;99.90
7232;DHT22;3657;49.630;11.018;2023-08-31T02:55:49;15.70;99.90
7232;DHT22;3657;49.630;11.018;2023-08-31T02:58:17;15.70;99.90
7232;DHT22;3657;49.630;11.018;2023-08-31T03:00:44;15.70;99.90
7232;DHT22;3657;49.630;11.018;2023-08-31T03:03:13;15.70;99.90
7232;DHT22;3657;49.630;11.018;2023-08-31T03:05:40;15.70;99.90
7232;DHT22;3657;49.630;11.018;2023-08-31T03:08:08;15.60;99.90
7232;DHT22;3657;49.630;11.018;2023-08-31T03:10:35;15.60;99.90
7232;DHT22;3657;49.630;11.018;2023-08-31T03:13:02;15.60;99.90
7232;DHT22;3657;49.630;11.018;2023-08-31T03:15:29;15.60;99.90
7232;DHT22;3657;49.630;11.018;2023-08-31T03:17:55;15.60;99.90
7232;DHT22;3657;49.630;11.018;2023-08-31T03:20:22;15.60;99.90
7232;DHT22;3657;49.630;11.018;2023-08-31T03:22:49;15.60;99.90
7232;DHT22;3657;49.630;11.018;2023-08-31T03:25:17;15.60;99.90
7232;DHT22;3657;49.630;11.018;2023-08-31T03:27:44;15.60;99.90
7232;DHT22;3657;49.630;11.018;2023-08-31T03:30:11;15.50;99.90
7232;DHT22;3657;49.630;11.018;2023-08-31T03:32:38;15.50;99.90
7232;DHT22;3657;49.630;11.018;2023-08-31T03:35:06;15.50;99.90
7232;DHT22;3657;49.630;11.018;2023-08-31T03:37:33;15.50;99.90
7232;DHT22;3657;49.630;11.018;2023-08-31T03:40:00;15.40;99.90
7232;DHT22;3657;49.630;11.018;2023-08-31T03:42:28;15.40;99.90
7232;DHT22;3657;49.630;11.018;2023-08-31T03:44:54;15.40;99.90
7232;DHT22;3657;49.630;11.018;2023-08-31T03:47:21;15.30;99.90
7232;DHT22;3657;49.630;11.018;2023-08-31T03:49:48;15.20;99.90
7232;DHT22;3657;49.630;11.018;2023-08-31T03:52:14;15.10;99.90
7232;DHT22;3657;49.630;11.018;2023-08-31T03:54:41;15.10;99.90
7232;DHT22;3657;49.630;11.018;2023-08-31T03:57:08;15.10;99.90
7232;DHT22;3657;49.630;11.018;2023-08-31T03:59:36;15.20;99.90
7232;DHT22;3657;49.630;11.018;2023-08-31T04:02:03;15.10;99.90
7232;DHT22;3657;49.630;11.018;2023-08-31T04:04:29;15.10;99.90
7232;DHT22;3657;49.630;11.018;2023-08-31T04:06:56;15.10;99.90
7232;DHT22;3657;49.630;11.018;2023-08-31T04:09:23;15.10;99.90
7232;DHT22;3657;49.630;11.018;2023-08-31T04:11:49;15.10;99.90
7232;DHT22;3657;49.630;11.018;2023-08-31T04:14:16;15.10;99.90
7232;DHT22;3657;49.630;11.018;2023-08-31T04:16:45;15.10;99.90
7232;DHT22;3657;49.630;11.018;2023-08-31T04:19:15;15.10;99.90
7232;DHT22;3657;49.630;11.018;2023-08-31T04:21:41;15.10;99.90
7232;DHT22;3657;49.630;11.018;2023-08-31T04:24:08;15.10;99.90
7232;DHT22;3657;49.630;11.018;2023-08-31T04:26:35;15.00;99.90
7232;DHT22;3657;49.630;11.018;2023-08-31T04:29:02;15.00;99.90
7232;DHT22;3657;49.630;11.018;2023-08-31T04:31:31;15.00;99.90
7232;DHT22;3657;49.630;11.018;2023-08-31T04:33:59;15.00;99.90
7232;DHT22;3657;49.630;11.018;2023-08-31T04:36:26;15.00;99.90
7232;DHT22;3657;49.630;11.018;2023-08-31T04:38:52;15.00;99.90
7232;DHT22;3657;49.630;11.018;2023-08-31T04:41:19;14.90;99.90
7232;DHT22;3657;49.630;11.018;2023-08-31T04:43:46;14.90;99.90
7232;DHT22;3657;49.630;11.018;2023-08-31T04:46:14;14.90;99.90
7232;DHT22;3657;49.630;11.018;2023-08-31T04:48:40;15.00;99.90
7232;DHT22;3657;49.630;11.018;2023-08-31T04:51:13;14.90;99.90
7232;DHT22;3657;49.630;11.018;2023-08-31T04:53:53;14.90;99.90
7232;DHT22;3657;49.630;11.018;2023-08-31T04:56:19;14.90;99.90
7232;DHT22;3657;49.630;11.018;2023-08-31T04:58:46;14.80;99.90
7232;DHT22;3657;49.630;11.018;2023-08-31T05:01:13;14.80;99.90
7232;DHT22;3657;49.630;11.018;2023-08-31T05:03:39;14.70;99.90
7232;DHT22;3657;49.630;11.018;2023-08-31T05:06:06;14.70;99.90
7232;DHT22;3657;49.630;11.018;2023-08-31T05:08:34;14.70;99.90
7232;DHT22;3657;49.630;11.018;2023-08-31T05:11:01;14.70;99.90
7232;DHT22;3657;49.630;11.018;2023-08-31T05:13:28;14.70;99.90
7232;DHT22;3657;49.630;11.018;2023-08-31T05:15:55;14.60;99.90
7232;DHT22;3657;49.630;11.018;2023-08-31T05:18:21;14.70;99.90
7232;DHT22;3657;49.630;11.018;2023-08-31T05:20:48;14.70;99.90
7232;DHT22;3657;49.630;11.018;2023-08-31T05:23:15;14.70;99.90
7232;DHT22;3657;49.630;11.018;2023-08-31T05:25:43;14.60;99.90
7232;DHT22;3657;49.630;11.018;2023-08-31T05:28:10;14.60;99.90
7232;DHT22;3657;49.630;11.018;2023-08-31T05:30:38;14.60;99.90
7232;DHT22;3657;49.630;11.018;2023-08-31T05:33:12;14.60;99.90
7232;DHT22;3657;49.630;11.018;2023-08-31T05:35:39;14.60;99.90
7232;DHT22;3657;49.630;11.018;2023-08-31T05:38:05;14.70;99.90
7232;DHT22;3657;49.630;11.018;2023-08-31T05:40:32;14.70;99.90
7232;DHT22;3657;49.630;11.018;2023-08-31T05:43:00;14.70;99.90
7232;DHT22;3657;49.630;11.018;2023-08-31T05:45:29;15.00;99.90
7232;DHT22;3657;49.630;11.018;2023-08-31T05:47:57;15.00;99.90
7232;DHT22;3657;49.630;11.018;2023-08-31T05:50:24;15.20;99.90
7232;DHT22;3657;49.630;11.018;2023-08-31T05:52:51;15.40;99.90
7232;DHT22;3657;49.630;11.018;2023-08-31T05:55:18;15.40;99.90
7232;DHT22;3657;49.630;11.018;2023-08-31T05:57:44;15.30;99.90
7232;DHT22;3657;49.630;11.018;2023-08-31T06:00:13;15.20;99.90
7232;DHT22;3657;49.630;11.018;2023-08-31T06:02:40;15.10;99.90
7232;DHT22;3657;49.630;11.018;2023-08-31T06:05:08;15.00;99.90
7232;DHT22;3657;49.630;11.018;2023-08-31T06:07:35;14.90;99.90
7232;DHT22;3657;49.630;11.018;2023-08-31T06:10:01;14.80;99.90
7232;DHT22;3657;49.630;11.018;2023-08-31T06:12:28;14.90;99.90
7232;DHT22;3657;49.630;11.018;2023-08-31T06:14:55;15.20;99.90
7232;DHT22;3657;49.630;11.018;2023-08-31T06:17:23;15.60;99.90
7232;DHT22;3657;49.630;11.018;2023-08-31T06:19:50;16.00;99.90
7232;DHT22;3657;49.630;11.018;2023-08-31T06:22:16;16.20;99.90
7232;DHT22;3657;49.630;11.018;2023-08-31T06:24:44;16.50;99.90
7232;DHT22;3657;49.630;11.018;2023-08-31T06:27:11;16.70;99.90
7232;DHT22;3657;49.630;11.018;2023-08-31T06:29:38;16.90;99.90
7232;DHT22;3657;49.630;11.018;2023-08-31T06:32:05;17.10;99.90
7232;DHT22;3657;49.630;11.018;2023-08-31T06:34:33;17.10;99.90
7232;DHT22;3657;49.630;11.018;2023-08-31T06:37:00;17.30;99.90
7232;DHT22;3657;49.630;11.018;2023-08-31T06:39:27;17.40;99.90
7232;DHT22;3657;49.630;11.018;2023-08-31T06:41:55;17.50;99.90
7232;DHT22;3657;49.630;11.018;2023-08-31T06:44:22;17.60;99.90
7232;DHT22;3657;49.630;11.018;2023-08-31T06:46:48;17.70;99.90
7232;DHT22;3657;49.630;11.018;2023-08-31T06:49:15;17.90;99.90
7232;DHT22;3657;49.630;11.018;2023-08-31T06:51:43;17.80;99.90
7232;DHT22;3657;49.630;11.018;2023-08-31T06:54:10;17.80;99.90
7232;DHT22;3657;49.630;11.018;2023-08-31T06:56:37;17.90;99.90
7232;DHT22;3657;49.630;11.018;2023-08-31T06:59:03;17.90;99.90
7232;DHT22;3657;49.630;11.018;2023-08-31T07:01:30;18.10;99.90
7232;DHT22;3657;49.630;11.018;2023-08-31T07:03:58;18.20;99.90
7232;DHT22;3657;49.630;11.018;2023-08-31T07:06:25;18.40;99.90
7232;DHT22;3657;49.630;11.018;2023-08-31T07:08:53;18.50;99.90
7232;DHT22;3657;49.630;11.018;2023-08-31T07:11:20;18.50;99.90
7232;DHT22;3657;49.630;11.018;2023-08-31T07:13:46;18.30;99.90
7232;DHT22;3657;49.630;11.018;2023-08-31T07:16:13;17.90;99.90
7232;DHT22;3657;49.630;11.018;2023-08-31T07:18:40;17.70;99.90
7232;DHT22;3657;49.630;11.018;2023-08-31T07:21:06;17.60;99.90
7232;DHT22;3657;49.630;11.018;2023-08-31T07:23:33;17.60;99.90
7232;DHT22;3657;49.630;11.018;2023-08-31T07:26:01;17.50;99.90
7232;DHT22;3657;49.630;11.018;2023-08-31T07:28:30;17.70;99.90
7232;DHT22;3657;49.630;11.018;2023-08-31T07:31:03;17.90;99.90
7232;DHT22;3657;49.630;11.018;2023-08-31T07:33:30;18.10;99.90
7232;DHT22;3657;49.630;11.018;2023-08-31T07:35:58;18.10;99.90
7232;DHT22;3657;49.630;11.018;2023-08-31T07:38:25;18.30;99.90
7232;DHT22;3657;49.630;11.018;2023-08-31T07:40:52;18.20;99.90
7232;DHT22;3657;49.630;11.018;2023-08-31T07:43:20;18.30;99.90
7232;DHT22;3657;49.630;11.018;2023-08-31T07:45:47;18.30;99.90
7232;DHT22;3657;49.630;11.018;2023-08-31T07:48:14;18.50;99.90
7232;DHT22;3657;49.630;11.018;2023-08-31T07:50:41;18.60;99.90
7232;DHT22;3657;49.630;11.018;2023-08-31T07:53:07;18.70;99.90
7232;DHT22;3657;49.630;11.018;2023-08-31T07:55:34;18.80;99.90
7232;DHT22;3657;49.630;11.018;2023-08-31T07:58:01;18.60;99.90
7232;DHT22;3657;49.630;11.018;2023-08-31T08:00:29;18.70;99.90
7232;DHT22;3657;49.630;11.018;2023-08-31T08:02:56;18.50;99.90
7232;DHT22;3657;49.630;11.018;2023-08-31T08:05:22;18.30;99.90
7232;DHT22;3657;49.630;11.018;2023-08-31T08:07:49;18.00;99.90
7232;DHT22;3657;49.630;11.018;2023-08-31T08:10:16;18.10;99.90
7232;DHT22;3657;49.630;11.018;2023-08-31T08:12:43;18.00;99.90
7232;DHT22;3657;49.630;11.018;2023-08-31T08:15:11;18.30;99.90
7232;DHT22;3657;49.630;11.018;2023-08-31T08:17:39;18.30;99.90
7232;DHT22;3657;49.630;11.018;2023-08-31T08:20:07;18.20;99.90
7232;DHT22;3657;49.630;11.018;2023-08-31T08:22:34;18.60;99.90
7232;DHT22;3657;49.630;11.018;2023-08-31T08:25:02;19.00;99.90
7232;DHT22;3657;49.630;11.018;2023-08-31T08:27:29;19.60;99.90
7232;DHT22;3657;49.630;11.018;2023-08-31T08:29:57;19.60;99.90
7232;DHT22;3657;49.630;11.018;2023-08-31T08:32:23;19.90;99.90
7232;DHT22;3657;49.630;11.018;2023-08-31T08:34:51;19.90;99.90
7232;DHT22;3657;49.630;11.018;2023-08-31T08:37:19;20.20;99.90
7232;DHT22;3657;49.630;11.018;2023-08-31T08:39:48;20.30;99.90
7232;DHT22;3657;49.630;11.018;2023-08-31T08:42:17;20.70;99.90
7232;DHT22;3657;49.630;11.018;2023-08-31T08:44:44;20.90;99.90
7232;DHT22;3657;49.630;11.018;2023-08-31T08:47:12;21.10;99.90
7232;DHT22;3657;49.630;11.018;2023-08-31T08:49:38;20.60;99.90
7232;DHT22;3657;49.630;11.018;2023-08-31T08:52:07;20.70;99.90
7232;DHT22;3657;49.630;11.018;2023-08-31T08:54:35;20.90;99.90
7232;DHT22;3657;49.630;11.018;2023-08-31T08:57:02;21.10;99.90
7232;DHT22;3657;49.630;11.018;2023-08-31T08:59:30;21.20;99.90
7232;DHT22;3657;49.630;11.018;2023-08-31T09:01:57;21.60;99.90
7232;DHT22;3657;49.630;11.018;2023-08-31T09:04:24;21.90;99.90
7232;DHT22;3657;49.630;11.018;2023-08-31T09:06:50;22.20;99.90
7232;DHT22;3657;49.630;11.018;2023-08-31T09:09:19;22.40;99.90
7232;DHT22;3657;49.630;11.018;2023-08-31T09:11:46;22.60;99.90
7232;DHT22;3657;49.630;11.018;2023-08-31T09:14:14;22.80;99.90
7232;DHT22;3657;49.630;11.018;2023-08-31T09:16:44;23.00;99.10
7232;DHT22;3657;49.630;11.018;2023-08-31T09:19:18;22.50;99.70
7232;DHT22;3657;49.630;11.018;2023-08-31T09:21:45;21.70;99.90
7232;DHT22;3657;49.630;11.018;2023-08-31T09:24:12;21.80;99.90
7232;DHT22;3657;49.630;11.018;2023-08-31T09:26:43;22.10;99.90
7232;DHT22;3657;49.630;11.018;2023-08-31T09:29:10;22.00;99.90
7232;DHT22;3657;49.630;11.018;2023-08-31T09:31:37;22.00;99.90
7232;DHT22;3657;49.630;11.018;2023-08-31T09:34:03;21.90;99.90
7232;DHT22;3657;49.630;11.018;2023-08-31T09:36:31;21.50;99.90
7232;DHT22;3657;49.630;11.018;2023-08-31T09:38:58;21.10;99.90
7232;DHT22;3657;49.630;11.018;2023-08-31T09:41:25;20.80;99.90
7232;DHT22;3657;49.630;11.018;2023-08-31T09:43:53;20.70;99.90
7232;DHT22;3657;49.630;11.018;2023-08-31T09:46:21;20.60;99.90
7232;DHT22;3657;49.630;11.018;2023-08-31T09:48:48;20.60;99.90
7232;DHT22;3657;49.630;11.018;2023-08-31T09:51:15;20.70;99.90
7232;DHT22;3657;49.630;11.018;2023-08-31T09:53:48;20.80;99.90
7232;DHT22;3657;49.630;11.018;2023-08-31T09:56:19;20.90;99.90
7232;DHT22;3657;49.630;11.018;2023-08-31T09:58:47;21.40;99.90
7232;DHT22;3657;49.630;11.018;2023-08-31T10:01:16;21.40;99.90
7232;DHT22;3657;49.630;11.018;2023-08-31T10:03:43;21.40;99.90
7232;DHT22;3657;49.630;11.018;2023-08-31T10:06:10;21.70;99.90
7232;DHT22;3657;49.630;11.018;2023-08-31T10:08:38;21.70;99.90
7232;DHT22;3657;49.630;11.018;2023-08-31T10:11:05;21.60;99.90
7232;DHT22;3657;49.630;11.018;2023-08-31T10:13:33;21.10;99.90
7232;DHT22;3657;49.630;11.018;2023-08-31T10:16:04;20.90;99.90
7232;DHT22;3657;49.630;11.018;2023-08-31T10:18:34;20.80;99.90
7232;DHT22;3657;49.630;11.018;2023-08-31T10:21:01;20.70;99.90
7232;DHT22;3657;49.630;11.018;2023-08-31T10:23:29;20.60;99.90
7232;DHT22;3657;49.630;11.018;2023-08-31T10:26:00;20.50;99.90
7232;DHT22;3657;49.630;11.018;2023-08-31T10:28:27;20.50;99.90
7232;DHT22;3657;49.630;11.018;2023-08-31T10:31:00;20.40;99.90
7232;DHT22;3657;49.630;11.018;2023-08-31T10:33:28;20.50;99.90
7232;DHT22;3657;49.630;11.018;2023-08-31T10:35:59;20.60;99.90
7232;DHT22;3657;49.630;11.018;2023-08-31T10:38:27;20.60;99.90
7232;DHT22;3657;49.630;11.018;2023-08-31T10:41:00;20.60;99.90
7232;DHT22;3657;49.630;11.018;2023-08-31T10:43:43;20.60;99.90
7232;DHT22;3657;49.630;11.018;2023-08-31T10:46:18;20.60;99.90
7232;DHT22;3657;49.630;11.018;2023-08-31T10:48:52;20.50;99.90
7232;DHT22;3657;49.630;11.018;2023-08-31T10:51:23;20.50;99.90
7232;DHT22;3657;49.630;11.018;2023-08-31T10:53:50;20.50;99.90
7232;DHT22;3657;49.630;11.018;2023-08-31T10:56:18;20.60;99.90
7232;DHT22;3657;49.630;11.018;2023-08-31T10:58:58;20.40;99.90
7232;DHT22;3657;49.630;11.018;2023-08-31T11:01:54;20.50;99.90
7232;DHT22;3657;49.630;11.018;2023-08-31T11:04:22;20.70;99.90
7232;DHT22;3657;49.630;11.018;2023-08-31T11:07:16;20.90;99.90
7232;DHT22;3657;49.630;11.018;2023-08-31T11:09:43;21.00;99.90
7232;DHT22;3657;49.630;11.018;2023-08-31T11:12:11;21.00;99.90
7232;DHT22;3657;49.630;11.018;2023-08-31T11:14:38;21.00;99.90
7232;DHT22;3657;49.630;11.018;2023-08-31T11:17:05;20.90;99.90
7232;DHT22;3657;49.630;11.018;2023-08-31T11:19:33;20.70;99.90
7232;DHT22;3657;49.630;11.018;2023-08-31T11:22:02;20.40;99.90
7232;DHT22;3657;49.630;11.018;2023-08-31T11:24:29;20.30;99.90
7232;DHT22;3657;49.630;11.018;2023-08-31T11:26:56;20.40;99.90
7232;DHT22;3657;49.630;11.018;2023-08-31T11:29:23;20.40;99.90
7232;DHT22;3657;49.630;11.018;2023-08-31T11:31:50;20.40;99.90
7232;DHT22;3657;49.630;11.018;2023-08-31T11:34:18;20.40;99.90
7232;DHT22;3657;49.630;11.018;2023-08-31T11:36:46;20.60;99.90
7232;DHT22;3657;49.630;11.018;2023-08-31T11:39:14;20.70;99.90
7232;DHT22;3657;49.630;11.018;2023-08-31T11:41:42;20.60;99.90
7232;DHT22;3657;49.630;11.018;2023-08-31T11:44:09;20.70;99.90
7232;DHT22;3657;49.630;11.018;2023-08-31T11:46:37;20.80;99.90
7232;DHT22;3657;49.630;11.018;2023-08-31T11:49:05;20.60;99.90
7232;DHT22;3657;49.630;11.018;2023-08-31T11:51:33;20.50;99.70
7232;DHT22;3657;49.630;11.018;2023-08-31T11:54:00;20.30;99.90
7232;DHT22;3657;49.630;11.018;2023-08-31T11:56:38;20.20;99.90
7232;DHT22;3657;49.630;11.018;2023-08-31T11:59:08;20.20;99.90
7232;DHT22;3657;49.630;11.018;2023-08-31T12:01:38;20.30;99.90
7232;DHT22;3657;49.630;11.018;2023-08-31T12:04:10;20.10;99.90
7232;DHT22;3657;49.630;11.018;2023-08-31T12:06:37;20.30;99.90
7232;DHT22;3657;49.630;11.018;2023-08-31T12:09:05;20.40;99.90
7232;DHT22;3657;49.630;11.018;2023-08-31T12:11:33;20.40;99.90
7232;DHT22;3657;49.630;11.018;2023-08-31T12:14:00;20.40;99.90
7232;DHT22;3657;49.630;11.018;2023-08-31T12:16:32;20.50;99.90
7232;DHT22;3657;49.630;11.018;2023-08-31T12:19:02;20.50;99.90
7232;DHT22;3657;49.630;11.018;2023-08-31T12:21:29;20.60;99.90
7232;DHT22;3657;49.630;11.018;2023-08-31T12:23:57;20.60;99.90
7232;DHT22;3657;49.630;11.018;2023-08-31T12:26:24;20.70;99.90
7232;DHT22;3657;49.630;11.018;2023-08-31T12:28:52;20.70;99.90
7232;DHT22;3657;49.630;11.018;2023-08-31T12:31:18;20.80;99.90
7232;DHT22;3657;49.630;11.018;2023-08-31T12:33:45;20.90;99.70
7232;DHT22;3657;49.630;11.018;2023-08-31T12:36:12;20.80;99.50
7232;DHT22;3657;49.630;11.018;2023-08-31T12:38:39;20.80;99.90
7232;DHT22;3657;49.630;11.018;2023-08-31T12:41:06;20.90;99.90
7232;DHT22;3657;49.630;11.018;2023-08-31T12:43:34;20.80;99.90
7232;DHT22;3657;49.630;11.018;2023-08-31T12:46:02;20.90;99.90
7232;DHT22;3657;49.630;11.018;2023-08-31T12:48:31;20.90;99.90
7232;DHT22;3657;49.630;11.018;2023-08-31T12:50:57;20.90;99.90
7232;DHT22;3657;49.630;11.018;2023-08-31T12:53:24;21.00;99.90
7232;DHT22;3657;49.630;11.018;2023-08-31T12:55:52;21.00;99.90
7232;DHT22;3657;49.630;11.018;2023-08-31T12:58:19;21.00;99.90
7232;DHT22;3657;49.630;11.018;2023-08-31T13:00:47;21.10;99.90
7232;DHT22;3657;49.630;11.018;2023-08-31T13:03:17;21.00;99.90
7232;DHT22;3657;49.630;11.018;2023-08-31T13:05:44;21.00;99.90
7232;DHT22;3657;49.630;11.018;2023-08-31T13:08:10;21.00;99.90
7232;DHT22;3657;49.630;11.018;2023-08-31T13:10:37;21.10;99.90
7232;DHT22;3657;49.630;11.018;2023-08-31T13:13:04;21.20;99.90
7232;DHT22;3657;49.630;11.018;2023-08-31T13:15:31;21.20;99.90
7232;DHT22;3657;49.630;11.018;2023-08-31T13:17:58;21.20;99.90
7232;DHT22;3657;49.630;11.018;2023-08-31T13:20:26;21.20;99.90
7232;DHT22;3657;49.630;11.018;2023-08-31T13:22:53;21.20;99.90
7232;DHT22;3657;49.630;11.018;2023-08-31T13:25:20;21.30;99.90
7232;DHT22;3657;49.630;11.018;2023-08-31T13:27:46;21.30;99.90
7232;DHT22;3657;49.630;11.018;2023-08-31T13:30:13;21.30;99.90
7232;DHT22;3657;49.630;11.018;2023-08-31T13:32:40;21.40;98.30
7232;DHT22;3657;49.630;11.018;2023-08-31T13:35:07;21.50;99.90
7232;DHT22;3657;49.630;11.018;2023-08-31T13:37:35;21.60;99.90
7232;DHT22;3657;49.630;11.018;2023-08-31T13:40:03;21.50;99.90
7232;DHT22;3657;49.630;11.018;2023-08-31T13:42:34;21.50;99.90
7232;DHT22;3657;49.630;11.018;2023-08-31T13:45:01;21.30;99.90
7232;DHT22;3657;49.630;11.018;2023-08-31T13:47:29;21.40;99.90
7232;DHT22;3657;49.630;11.018;2023-08-31T13:49:55;21.60;99.90
7232;DHT22;3657;49.630;11.018;2023-08-31T13:52:22;21.70;99.90
7232;DHT22;3657;49.630;11.018;2023-08-31T13:54:51;21.70;99.90
7232;DHT22;3657;49.630;11.018;2023-08-31T13:57:18;21.80;99.90
7232;DHT22;3657;49.630;11.018;2023-08-31T13:59:45;21.80;99.90
7232;DHT22;3657;49.630;11.018;2023-08-31T14:02:12;21.90;99.90
7232;DHT22;3657;49.630;11.018;2023-08-31T14:04:38;21.80;98.50
7232;DHT22;3657;49.630;11.018;2023-08-31T14:07:05;21.90;99.90
7232;DHT22;3657;49.630;11.018;2023-08-31T14:09:33;22.00;99.90
7232;DHT22;3657;49.630;11.018;2023-08-31T14:12:01;22.10;99.90
7232;DHT22;3657;49.630;11.018;2023-08-31T14:14:29;22.30;99.90
7232;DHT22;3657;49.630;11.018;2023-08-31T14:16:55;22.40;99.90
7232;DHT22;3657;49.630;11.018;2023-08-31T14:19:22;22.50;99.90
7232;DHT22;3657;49.630;11.018;2023-08-31T14:21:49;22.20;99.90
7232;DHT22;3657;49.630;11.018;2023-08-31T14:24:18;22.10;99.70
7232;DHT22;3657;49.630;11.018;2023-08-31T14:26:44;22.00;99.60
7232;DHT22;3657;49.630;11.018;2023-08-31T14:29:12;21.90;98.60
7232;DHT22;3657;49.630;11.018;2023-08-31T14:31:39;21.70;98.70
7232;DHT22;3657;49.630;11.018;2023-08-31T14:34:06;21.60;98.30
7232;DHT22;3657;49.630;11.018;2023-08-31T14:36:32;21.50;98.70
7232;DHT22;3657;49.630;11.018;2023-08-31T14:38:59;21.40;97.50
7232;DHT22;3657;49.630;11.018;2023-08-31T14:41:26;21.50;99.30
7232;DHT22;3657;49.630;11.018;2023-08-31T14:43:53;21.50;98.00
7232;DHT22;3657;49.630;11.018;2023-08-31T14:46:21;21.50;95.60
7232;DHT22;3657;49.630;11.018;2023-08-31T14:48:49;21.40;97.50
7232;DHT22;3657;49.630;11.018;2023-08-31T14:51:16;21.40;96.10
7232;DHT22;3657;49.630;11.018;2023-08-31T14:53:43;21.40;96.80
7232;DHT22;3657;49.630;11.018;2023-08-31T14:56:10;21.40;95.70
7232;DHT22;3657;49.630;11.018;2023-08-31T14:58:36;21.30;96.40
7232;DHT22;3657;49.630;11.018;2023-08-31T15:01:03;21.20;96.20
7232;DHT22;3657;49.630;11.018;2023-08-31T15:03:31;21.10;96.60
7232;DHT22;3657;49.630;11.018;2023-08-31T15:05:58;21.00;96.40
7232;DHT22;3657;49.630;11.018;2023-08-31T15:08:38;21.00;95.10
7232;DHT22;3657;49.630;11.018;2023-08-31T15:11:05;20.90;96.30
7232;DHT22;3657;49.630;11.018;2023-08-31T15:13:32;20.90;97.30
7232;DHT22;3657;49.630;11.018;2023-08-31T15:15:59;21.00;96.90
7232;DHT22;3657;49.630;11.018;2023-08-31T15:18:26;21.00;95.70
7232;DHT22;3657;49.630;11.018;2023-08-31T15:20:54;21.00;97.60
7232;DHT22;3657;49.630;11.018;2023-08-31T15:23:21;21.10;95.70
7232;DHT22;3657;49.630;11.018;2023-08-31T15:25:48;21.20;98.20
7232;DHT22;3657;49.630;11.018;2023-08-31T15:28:15;21.30;98.00
7232;DHT22;3657;49.630;11.018;2023-08-31T15:30:41;21.40;98.00
7232;DHT22;3657;49.630;11.018;2023-08-31T15:33:08;21.40;97.30
7232;DHT22;3657;49.630;11.018;2023-08-31T15:35:35;21.40;95.40
7232;DHT22;3657;49.630;11.018;2023-08-31T15:38:03;21.40;97.60
7232;DHT22;3657;49.630;11.018;2023-08-31T15:40:30;21.30;96.50
7232;DHT22;3657;49.630;11.018;2023-08-31T15:42:56;21.20;96.80
7232;DHT22;3657;49.630;11.018;2023-08-31T15:45:23;21.20;96.50
7232;DHT22;3657;49.630;11.018;2023-08-31T15:47:50;21.20;98.60